sensor_id;sensor_type;location;lat;lon;timestamp;temperature;humidity
43009;DHT22;28634;45.454;11.106;2022-09-01T00:00:00;26.60;63.80
43009;DHT22;28634;45.454;11.106;2022-09-01T00:02:28;26.60;62.90
43009;DHT22;28634;45.454;11.106;2022-09-01T00:04:56;26.60;63.40
43009;DHT22;28634;45.454;11.106;2022-09-01T00:07:26;26.60;64.40
43009;DHT22;28634;45.454;11.106;2022-09-01T00:09:57;26.50;64.00
43009;DHT22;28634;45.454;11.106;2022-09-01T00:12:25;26.50;64.40
43009;DHT22;28634;45.454;11.106;2022-09-01T00:14:52;26.60;64.40
43009;DHT22;28634;45.454;11.106;2022-09-01T00:17:20;26.60;64.70
43009;DHT22;28634;45.454;11.106;2022-09-01T00:19:47;26.60;63.90
43009;DHT22;28634;45.454;11.106;2022-09-01T00:22:15;26.60;63.80
43009;DHT22;28634;45.454;11.106;2022-09-01T00:24:42;26.50;64.40
43009;DHT22;28634;45.454;11.106;2022-09-01T00:27:09;26.50;64.20
43009;DHT22;28634;45.454;11.106;2022-09-01T00:29:38;26.50;64.00
43009;DHT22;28634;45.454;11.106;2022-09-01T00:32:10;26.50;64.40
43009;DHT22;28634;45.454;11.106;2022-09-01T00:34:38;26.50;64.10
43009;DHT22;28634;45.454;11.106;2022-09-01T00:37:06;26.40;64.70
43009;DHT22;28634;45.454;11.106;2022-09-01T00:39:33;26.40;64.40
43009;DHT22;28634;45.454;11.106;2022-09-01T00:42:01;26.40;64.70
43009;DHT22;28634;45.454;11.106;2022-09-01T00:44:28;26.40;64.50
43009;DHT22;28634;45.454;11.106;2022-09-01T00:46:58;26.40;64.40
43009;DHT22;28634;45.454;11.106;2022-09-01T00:52:13;26.50;64.50
43009;DHT22;28634;45.454;11.106;2022-09-01T00:54:48;26.40;64.70
43009;DHT22;28634;45.454;11.106;2022-09-01T00:57:16;26.40;64.30
43009;DHT22;28634;45.454;11.106;2022-09-01T00:59:56;26.40;64.20
43009;DHT22;28634;45.454;11.106;2022-09-01T01:02:24;26.40;64.00
43009;DHT22;28634;45.454;11.106;2022-09-01T01:04:53;26.40;63.60
43009;DHT22;28634;45.454;11.106;2022-09-01T01:07:22;26.40;63.40
43009;DHT22;28634;45.454;11.106;2022-09-01T01:09:50;26.40;63.20
43009;DHT22;28634;45.454;11.106;2022-09-01T01:12:18;26.50;63.10
43009;DHT22;28634;45.454;11.106;2022-09-01T01:14:47;26.40;63.20
43009;DHT22;28634;45.454;11.106;2022-09-01T01:17:19;26.40;63.40
43009;DHT22;28634;45.454;11.106;2022-09-01T01:19:54;26.40;63.40
43009;DHT22;28634;45.454;11.106;2022-09-01T01:25:58;26.40;63.20
43009;DHT22;28634;45.454;11.106;2022-09-01T01:28:31;26.30;63.50
43009;DHT22;28634;45.454;11.106;2022-09-01T01:31:02;26.30;63.30
43009;DHT22;28634;45.454;11.106;2022-09-01T01:33:37;26.30;63.00
43009;DHT22;28634;45.454;11.106;2022-09-01T01:36:11;26.30;63.10
43009;DHT22;28634;45.454;11.106;2022-09-01T01:38:39;26.30;63.00
43009;DHT22;28634;45.454;11.106;2022-09-01T01:41:11;26.40;63.10
43009;DHT22;28634;45.454;11.106;2022-09-01T01:43:39;26.40;62.80
43009;DHT22;28634;45.454;11.106;2022-09-01T01:46:09;26.40;62.80
43009;DHT22;28634;45.454;11.106;2022-09-01T01:48:39;26.40;63.00
43009;DHT22;28634;45.454;11.106;2022-09-01T01:51:08;26.40;63.00
43009;DHT22;28634;45.454;11.106;2022-09-01T01:53:36;26.40;62.80
43009;DHT22;28634;45.454;11.106;2022-09-01T01:56:04;26.40;62.80
43009;DHT22;28634;45.454;11.106;2022-09-01T01:58:32;26.40;62.70
43009;DHT22;28634;45.454;11.106;2022-09-01T02:00:59;26.40;62.70
43009;DHT22;28634;45.454;11.106;2022-09-01T02:03:31;26.40;61.90
43009;DHT22;28634;45.454;11.106;2022-09-01T02:06:07;26.40;62.70
43009;DHT22;28634;45.454;11.106;2022-09-01T02:08:36;26.50;62.60
43009;DHT22;28634;45.454;11.106;2022-09-01T02:11:06;26.50;62.20
43009;DHT22;28634;45.454;11.106;2022-09-01T02:13:33;26.50;62.70
43009;DHT22;28634;45.454;11.106;2022-09-01T02:16:06;26.50;63.00
43009;DHT22;28634;45.454;11.106;2022-09-01T02:18:44;26.50;63.10
43009;DHT22;28634;45.454;11.106;2022-09-01T02:21:15;26.50;62.60
43009;DHT22;28634;45.454;11.106;2022-09-01T02:23:48;26.50;62.80
43009;DHT22;28634;45.454;11.106;2022-09-01T02:26:15;26.50;63.20
43009;DHT22;28634;45.454;11.106;2022-09-01T02:28:46;26.40;62.80
43009;DHT22;28634;45.454;11.106;2022-09-01T02:31:21;26.40;62.80
43009;DHT22;28634;45.454;11.106;2022-09-01T02:33:49;26.40;62.80
43009;DHT22;28634;45.454;11.106;2022-09-01T02:36:17;26.40;62.60
43009;DHT22;28634;45.454;11.106;2022-09-01T02:38:46;26.40;62.40
43009;DHT22;28634;45.454;11.106;2022-09-01T02:41:22;26.40;62.60
43009;DHT22;28634;45.454;11.106;2022-09-01T02:43:51;26.30;62.60
43009;DHT22;28634;45.454;11.106;2022-09-01T02:46:18;26.30;62.80
43009;DHT22;28634;45.454;11.106;2022-09-01T02:48:50;26.30;62.80
43009;DHT22;28634;45.454;11.106;2022-09-01T02:51:23;26.30;62.60
43009;DHT22;28634;45.454;11.106;2022-09-01T02:53:52;26.30;62.30
43009;DHT22;28634;45.454;11.106;2022-09-01T02:56:23;26.30;62.50
43009;DHT22;28634;45.454;11.106;2022-09-01T02:58:52;26.40;62.50
43009;DHT22;28634;45.454;11.106;2022-09-01T03:01:28;26.40;62.30
43009;DHT22;28634;45.454;11.106;2022-09-01T03:04:04;26.50;62.00
43009;DHT22;28634;45.454;11.106;2022-09-01T03:06:32;26.50;61.70
43009;DHT22;28634;45.454;11.106;2022-09-01T03:09:01;26.40;62.20
43009;DHT22;28634;45.454;11.106;2022-09-01T03:11:31;26.40;62.20
43009;DHT22;28634;45.454;11.106;2022-09-01T03:13:58;26.40;62.20
43009;DHT22;28634;45.454;11.106;2022-09-01T03:16:26;26.40;61.90
43009;DHT22;28634;45.454;11.106;2022-09-01T03:18:53;26.40;62.10
43009;DHT22;28634;45.454;11.106;2022-09-01T03:21:21;26.40;62.10
43009;DHT22;28634;45.454;11.106;2022-09-01T03:23:50;26.30;62.50
43009;DHT22;28634;45.454;11.106;2022-09-01T03:26:19;26.30;62.30
43009;DHT22;28634;45.454;11.106;2022-09-01T03:28:49;26.30;62.70
43009;DHT22;28634;45.454;11.106;2022-09-01T03:31:17;26.30;62.30
43009;DHT22;28634;45.454;11.106;2022-09-01T03:33:45;26.30;62.70
43009;DHT22;28634;45.454;11.106;2022-09-01T03:36:13;26.30;62.40
43009;DHT22;28634;45.454;11.106;2022-09-01T03:38:49;26.30;62.50
43009;DHT22;28634;45.454;11.106;2022-09-01T03:41:21;26.30;62.60
43009;DHT22;28634;45.454;11.106;2022-09-01T03:43:51;26.30;62.60
43009;DHT22;28634;45.454;11.106;2022-09-01T03:46:22;26.20;62.60
43009;DHT22;28634;45.454;11.106;2022-09-01T03:48:52;26.20;63.10
43009;DHT22;28634;45.454;11.106;2022-09-01T03:51:22;26.20;63.70
43009;DHT22;28634;45.454;11.106;2022-09-01T03:53:52;26.30;63.80
43009;DHT22;28634;45.454;11.106;2022-09-01T04:52:41;26.00;65.50
43009;DHT22;28634;45.454;11.106;2022-09-01T04:55:10;26.00;65.20
43009;DHT22;28634;45.454;11.106;2022-09-01T04:57:48;25.90;65.90
43009;DHT22;28634;45.454;11.106;2022-09-01T05:00:17;25.90;65.60
43009;DHT22;28634;45.454;11.106;2022-09-01T05:02:53;25.90;66.20
43009;DHT22;28634;45.454;11.106;2022-09-01T05:05:21;25.90;65.30
43009;DHT22;28634;45.454;11.106;2022-09-01T05:07:49;25.80;65.30
43009;DHT22;28634;45.454;11.106;2022-09-01T05:10:23;25.70;66.10
43009;DHT22;28634;45.454;11.106;2022-09-01T05:12:55;25.70;66.60
43009;DHT22;28634;45.454;11.106;2022-09-01T05:15:23;25.70;66.30
43009;DHT22;28634;45.454;11.106;2022-09-01T05:17:50;25.60;66.80
43009;DHT22;28634;45.454;11.106;2022-09-01T05:20:18;25.60;66.90
43009;DHT22;28634;45.454;11.106;2022-09-01T05:22:52;25.80;64.90
43009;DHT22;28634;45.454;11.106;2022-09-01T05:25:24;25.90;63.90
43009;DHT22;28634;45.454;11.106;2022-09-01T05:27:51;25.80;66.10
43009;DHT22;28634;45.454;11.106;2022-09-01T05:30:18;25.80;64.40
43009;DHT22;28634;45.454;11.106;2022-09-01T05:32:45;25.90;64.50
43009;DHT22;28634;45.454;11.106;2022-09-01T05:35:15;25.80;65.10
43009;DHT22;28634;45.454;11.106;2022-09-01T05:37:42;25.80;65.00
43009;DHT22;28634;45.454;11.106;2022-09-01T05:40:10;25.80;65.70
43009;DHT22;28634;45.454;11.106;2022-09-01T05:42:45;25.80;65.50
43009;DHT22;28634;45.454;11.106;2022-09-01T05:45:13;25.70;65.80
43009;DHT22;28634;45.454;11.106;2022-09-01T05:47:40;25.70;66.00
43009;DHT22;28634;45.454;11.106;2022-09-01T05:50:08;25.70;66.40
43009;DHT22;28634;45.454;11.106;2022-09-01T05:52:40;25.70;66.10
43009;DHT22;28634;45.454;11.106;2022-09-01T05:55:14;25.70;65.70
43009;DHT22;28634;45.454;11.106;2022-09-01T05:57:43;25.70;65.30
43009;DHT22;28634;45.454;11.106;2022-09-01T06:00:13;25.80;64.80
43009;DHT22;28634;45.454;11.106;2022-09-01T06:02:41;25.80;63.90
43009;DHT22;28634;45.454;11.106;2022-09-01T06:05:09;25.80;63.30
43009;DHT22;28634;45.454;11.106;2022-09-01T06:07:36;25.80;62.50
43009;DHT22;28634;45.454;11.106;2022-09-01T06:10:05;25.80;62.00
43009;DHT22;28634;45.454;11.106;2022-09-01T06:12:33;25.80;63.20
43009;DHT22;28634;45.454;11.106;2022-09-01T06:15:00;25.80;63.90
43009;DHT22;28634;45.454;11.106;2022-09-01T06:17:27;25.70;64.60
43009;DHT22;28634;45.454;11.106;2022-09-01T06:19:59;25.80;64.00
43009;DHT22;28634;45.454;11.106;2022-09-01T06:22:27;25.90;62.40
43009;DHT22;28634;45.454;11.106;2022-09-01T06:24:54;25.90;60.90
43009;DHT22;28634;45.454;11.106;2022-09-01T06:27:28;25.90;62.50
43009;DHT22;28634;45.454;11.106;2022-09-01T06:29:55;25.80;62.20
43009;DHT22;28634;45.454;11.106;2022-09-01T06:32:24;25.80;62.70
43009;DHT22;28634;45.454;11.106;2022-09-01T06:34:55;26.10;60.80
43009;DHT22;28634;45.454;11.106;2022-09-01T06:37:23;26.40;58.30
43009;DHT22;28634;45.454;11.106;2022-09-01T06:39:51;26.50;57.30
43009;DHT22;28634;45.454;11.106;2022-09-01T06:42:19;26.40;57.50
43009;DHT22;28634;45.454;11.106;2022-09-01T06:44:48;26.20;58.70
43009;DHT22;28634;45.454;11.106;2022-09-01T06:47:15;26.00;58.90
43009;DHT22;28634;45.454;11.106;2022-09-01T06:49:42;25.90;60.40
43009;DHT22;28634;45.454;11.106;2022-09-01T06:52:10;25.70;60.60
43009;DHT22;28634;45.454;11.106;2022-09-01T06:54:37;25.60;60.10
43009;DHT22;28634;45.454;11.106;2022-09-01T06:57:06;25.50;60.80
43009;DHT22;28634;45.454;11.106;2022-09-01T06:59:53;25.50;60.50
43009;DHT22;28634;45.454;11.106;2022-09-01T07:02:21;25.40;59.90
43009;DHT22;28634;45.454;11.106;2022-09-01T07:04:53;25.40;60.80
43009;DHT22;28634;45.454;11.106;2022-09-01T07:07:21;25.60;61.80
43009;DHT22;28634;45.454;11.106;2022-09-01T07:10:08;25.90;61.10
43009;DHT22;28634;45.454;11.106;2022-09-01T07:12:56;26.10;60.00
43009;DHT22;28634;45.454;11.106;2022-09-01T07:15:39;26.10;59.40
43009;DHT22;28634;45.454;11.106;2022-09-01T07:18:27;26.20;59.80
43009;DHT22;28634;45.454;11.106;2022-09-01T07:20:56;26.20;59.50
43009;DHT22;28634;45.454;11.106;2022-09-01T07:23:44;26.30;59.20
43009;DHT22;28634;45.454;11.106;2022-09-01T07:26:33;26.30;57.70
43009;DHT22;28634;45.454;11.106;2022-09-01T07:29:04;26.30;58.10
43009;DHT22;28634;45.454;11.106;2022-09-01T07:31:35;26.20;59.20
43009;DHT22;28634;45.454;11.106;2022-09-01T07:34:24;26.10;59.00
43009;DHT22;28634;45.454;11.106;2022-09-01T07:37:12;26.00;60.80
43009;DHT22;28634;45.454;11.106;2022-09-01T07:39:59;25.90;60.30
43009;DHT22;28634;45.454;11.106;2022-09-01T07:42:48;25.90;58.90
43009;DHT22;28634;45.454;11.106;2022-09-01T07:45:35;25.80;60.50
43009;DHT22;28634;45.454;11.106;2022-09-01T07:48:14;25.80;61.30
43009;DHT22;28634;45.454;11.106;2022-09-01T07:51:06;25.80;61.80
43009;DHT22;28634;45.454;11.106;2022-09-01T07:53:54;25.90;61.20
43009;DHT22;28634;45.454;11.106;2022-09-01T07:56:22;26.20;60.80
43009;DHT22;28634;45.454;11.106;2022-09-01T07:58:50;26.20;60.80
43009;DHT22;28634;45.454;11.106;2022-09-01T08:01:20;26.20;62.20
43009;DHT22;28634;45.454;11.106;2022-09-01T08:03:52;26.00;61.70
43009;DHT22;28634;45.454;11.106;2022-09-01T08:06:21;26.00;63.00
43009;DHT22;28634;45.454;11.106;2022-09-01T08:08:49;26.00;62.90
43009;DHT22;28634;45.454;11.106;2022-09-01T08:11:28;25.90;61.80
43009;DHT22;28634;45.454;11.106;2022-09-01T08:14:15;26.00;62.60
43009;DHT22;28634;45.454;11.106;2022-09-01T08:16:44;26.00;63.40
43009;DHT22;28634;45.454;11.106;2022-09-01T08:19:19;26.00;63.60
43009;DHT22;28634;45.454;11.106;2022-09-01T08:21:46;26.00;64.80
43009;DHT22;28634;45.454;11.106;2022-09-01T08:24:13;26.00;63.40
43009;DHT22;28634;45.454;11.106;2022-09-01T08:26:40;26.00;62.80
43009;DHT22;28634;45.454;11.106;2022-09-01T08:29:07;26.00;61.10
43009;DHT22;28634;45.454;11.106;2022-09-01T08:31:35;26.00;59.80
43009;DHT22;28634;45.454;11.106;2022-09-01T08:34:02;26.10;60.80
43009;DHT22;28634;45.454;11.106;2022-09-01T08:36:32;26.10;60.90
43009;DHT22;28634;45.454;11.106;2022-09-01T08:39:01;26.10;60.00
43009;DHT22;28634;45.454;11.106;2022-09-01T08:46:54;26.20;59.30
43009;DHT22;28634;45.454;11.106;2022-09-01T08:49:24;26.20;57.80
43009;DHT22;28634;45.454;11.106;2022-09-01T08:57:35;26.30;58.70
43009;DHT22;28634;45.454;11.106;2022-09-01T09:00:06;26.30;54.90
43009;DHT22;28634;45.454;11.106;2022-09-01T09:02:50;26.40;54.50
43009;DHT22;28634;45.454;11.106;2022-09-01T09:05:27;26.30;56.10
43009;DHT22;28634;45.454;11.106;2022-09-01T09:08:22;26.40;54.10
43009;DHT22;28634;45.454;11.106;2022-09-01T09:10:59;26.50;54.90
43009;DHT22;28634;45.454;11.106;2022-09-01T09:16:44;26.60;54.10
43009;DHT22;28634;45.454;11.106;2022-09-01T09:21:57;26.60;53.60
43009;DHT22;28634;45.454;11.106;2022-09-01T09:27:22;26.70;53.40
43009;DHT22;28634;45.454;11.106;2022-09-01T09:29:56;26.70;53.50
43009;DHT22;28634;45.454;11.106;2022-09-01T09:38:16;26.90;53.30
43009;DHT22;28634;45.454;11.106;2022-09-01T09:41:01;26.90;51.50
43009;DHT22;28634;45.454;11.106;2022-09-01T09:43:48;27.10;52.90
43009;DHT22;28634;45.454;11.106;2022-09-01T09:46:35;27.10;53.40
43009;DHT22;28634;45.454;11.106;2022-09-01T09:49:11;27.20;53.60
43009;DHT22;28634;45.454;11.106;2022-09-01T09:51:40;27.20;52.50
43009;DHT22;28634;45.454;11.106;2022-09-01T09:56:42;27.30;51.90
43009;DHT22;28634;45.454;11.106;2022-09-01T10:00:24;27.40;52.50
43009;DHT22;28634;45.454;11.106;2022-09-01T10:02:34;27.50;51.10
43009;DHT22;28634;45.454;11.106;2022-09-01T10:05:25;27.60;51.70
43009;DHT22;28634;45.454;11.106;2022-09-01T10:07:55;27.60;51.80
43009;DHT22;28634;45.454;11.106;2022-09-01T10:12:56;27.70;51.20
43009;DHT22;28634;45.454;11.106;2022-09-01T10:15:31;27.80;51.70
43009;DHT22;28634;45.454;11.106;2022-09-01T10:18:07;27.90;50.30
43009;DHT22;28634;45.454;11.106;2022-09-01T10:20:56;27.90;49.70
43009;DHT22;28634;45.454;11.106;2022-09-01T10:23:29;28.00;49.10
43009;DHT22;28634;45.454;11.106;2022-09-01T10:26:16;28.00;50.10
43009;DHT22;28634;45.454;11.106;2022-09-01T10:28:57;28.00;51.00
43009;DHT22;28634;45.454;11.106;2022-09-01T10:31:28;28.10;48.30
43009;DHT22;28634;45.454;11.106;2022-09-01T10:34:00;28.10;47.80
43009;DHT22;28634;45.454;11.106;2022-09-01T10:36:32;28.10;46.90
43009;DHT22;28634;45.454;11.106;2022-09-01T10:39:01;28.10;48.50
43009;DHT22;28634;45.454;11.106;2022-09-01T10:41:53;28.10;48.40
43009;DHT22;28634;45.454;11.106;2022-09-01T10:44:33;28.10;48.40
43009;DHT22;28634;45.454;11.106;2022-09-01T10:47:10;28.20;49.50
43009;DHT22;28634;45.454;11.106;2022-09-01T10:55:24;28.40;45.90
43009;DHT22;28634;45.454;11.106;2022-09-01T10:58:07;28.50;46.50
43009;DHT22;28634;45.454;11.106;2022-09-01T11:00:59;28.50;46.00
43009;DHT22;28634;45.454;11.106;2022-09-01T11:03:53;28.50;45.70
43009;DHT22;28634;45.454;11.106;2022-09-01T11:14:55;28.60;46.00
43009;DHT22;28634;45.454;11.106;2022-09-01T11:17:35;28.60;47.20
43009;DHT22;28634;45.454;11.106;2022-09-01T11:20:20;28.60;44.60
43009;DHT22;28634;45.454;11.106;2022-09-01T11:23:25;28.70;45.30
43009;DHT22;28634;45.454;11.106;2022-09-01T11:25:57;28.80;46.80
43009;DHT22;28634;45.454;11.106;2022-09-01T11:28:45;28.80;47.60
43009;DHT22;28634;45.454;11.106;2022-09-01T11:31:39;28.80;46.10
43009;DHT22;28634;45.454;11.106;2022-09-01T11:34:19;28.90;45.30
43009;DHT22;28634;45.454;11.106;2022-09-01T11:36:59;28.90;44.80
43009;DHT22;28634;45.454;11.106;2022-09-01T11:39:39;28.80;42.90
43009;DHT22;28634;45.454;11.106;2022-09-01T11:42:11;28.70;45.30
43009;DHT22;28634;45.454;11.106;2022-09-01T11:45:02;28.70;46.60
43009;DHT22;28634;45.454;11.106;2022-09-01T11:47:39;28.70;44.20
43009;DHT22;28634;45.454;11.106;2022-09-01T11:55:34;29.00;43.60
43009;DHT22;28634;45.454;11.106;2022-09-01T11:58:03;29.10;43.50
43009;DHT22;28634;45.454;11.106;2022-09-01T12:00:33;29.10;43.40
43009;DHT22;28634;45.454;11.106;2022-09-01T12:03:21;29.20;45.20
43009;DHT22;28634;45.454;11.106;2022-09-01T12:06:00;29.10;45.80
43009;DHT22;28634;45.454;11.106;2022-09-01T12:08:32;29.00;46.40
43009;DHT22;28634;45.454;11.106;2022-09-01T12:11:12;29.00;46.60
43009;DHT22;28634;45.454;11.106;2022-09-01T12:14:01;29.00;45.80
43009;DHT22;28634;45.454;11.106;2022-09-01T12:16:33;29.00;45.80
43009;DHT22;28634;45.454;11.106;2022-09-01T12:19:04;28.90;45.00
43009;DHT22;28634;45.454;11.106;2022-09-01T12:21:34;28.90;46.00
43009;DHT22;28634;45.454;11.106;2022-09-01T12:24:19;28.90;45.60
43009;DHT22;28634;45.454;11.106;2022-09-01T12:26:49;28.90;44.20
43009;DHT22;28634;45.454;11.106;2022-09-01T12:29:17;28.80;44.20
43009;DHT22;28634;45.454;11.106;2022-09-01T12:31:47;28.80;42.20
43009;DHT22;28634;45.454;11.106;2022-09-01T12:34:39;28.80;43.10
43009;DHT22;28634;45.454;11.106;2022-09-01T12:39:49;28.70;44.70
43009;DHT22;28634;45.454;11.106;2022-09-01T12:44:49;28.70;44.80
43009;DHT22;28634;45.454;11.106;2022-09-01T12:50:01;28.70;44.40
43009;DHT22;28634;45.454;11.106;2022-09-01T12:52:31;28.70;45.60
43009;DHT22;28634;45.454;11.106;2022-09-01T12:57:38;28.70;46.20
43009;DHT22;28634;45.454;11.106;2022-09-01T13:03:04;28.70;44.50
43009;DHT22;28634;45.454;11.106;2022-09-01T13:05:39;28.70;44.70
43009;DHT22;28634;45.454;11.106;2022-09-01T13:08:13;28.70;44.10
43009;DHT22;28634;45.454;11.106;2022-09-01T13:13:12;28.80;44.30
43009;DHT22;28634;45.454;11.106;2022-09-01T13:15:46;28.80;44.30
43009;DHT22;28634;45.454;11.106;2022-09-01T13:18:15;28.70;44.20
43009;DHT22;28634;45.454;11.106;2022-09-01T13:20:42;28.70;45.60
43009;DHT22;28634;45.454;11.106;2022-09-01T13:23:12;28.70;45.70
43009;DHT22;28634;45.454;11.106;2022-09-01T13:25:39;28.70;45.20
43009;DHT22;28634;45.454;11.106;2022-09-01T13:28:10;28.70;45.90
43009;DHT22;28634;45.454;11.106;2022-09-01T13:30:38;28.70;47.40
43009;DHT22;28634;45.454;11.106;2022-09-01T13:33:06;28.60;46.50
43009;DHT22;28634;45.454;11.106;2022-09-01T13:35:50;28.60;43.90
43009;DHT22;28634;45.454;11.106;2022-09-01T13:38:17;28.70;42.80
43009;DHT22;28634;45.454;11.106;2022-09-01T13:40:49;28.70;43.50
43009;DHT22;28634;45.454;11.106;2022-09-01T13:43:19;28.70;44.10
43009;DHT22;28634;45.454;11.106;2022-09-01T13:45:47;28.70;44.50
43009;DHT22;28634;45.454;11.106;2022-09-01T13:48:15;28.70;43.70
43009;DHT22;28634;45.454;11.106;2022-09-01T13:50:44;28.60;44.80
43009;DHT22;28634;45.454;11.106;2022-09-01T13:53:32;28.60;44.40
43009;DHT22;28634;45.454;11.106;2022-09-01T13:55:59;28.60;44.90
43009;DHT22;28634;45.454;11.106;2022-09-01T13:58:26;28.50;44.90
43009;DHT22;28634;45.454;11.106;2022-09-01T14:00:53;28.50;45.00
43009;DHT22;28634;45.454;11.106;2022-09-01T14:03:25;28.50;44.70
43009;DHT22;28634;45.454;11.106;2022-09-01T14:05:52;28.60;44.50
43009;DHT22;28634;45.454;11.106;2022-09-01T14:08:21;28.60;45.30
43009;DHT22;28634;45.454;11.106;2022-09-01T14:10:50;28.60;45.90
43009;DHT22;28634;45.454;11.106;2022-09-01T14:13:23;28.50;45.20
43009;DHT22;28634;45.454;11.106;2022-09-01T14:15:51;28.50;43.10
43009;DHT22;28634;45.454;11.106;2022-09-01T14:18:20;28.50;43.70
43009;DHT22;28634;45.454;11.106;2022-09-01T14:20:49;28.40;44.40
43009;DHT22;28634;45.454;11.106;2022-09-01T14:23:17;28.50;44.80
43009;DHT22;28634;45.454;11.106;2022-09-01T14:25:47;28.40;44.10
43009;DHT22;28634;45.454;11.106;2022-09-01T14:28:15;28.40;44.20
43009;DHT22;28634;45.454;11.106;2022-09-01T14:30:47;28.40;43.70
43009;DHT22;28634;45.454;11.106;2022-09-01T14:33:14;28.40;44.00
43009;DHT22;28634;45.454;11.106;2022-09-01T14:35:46;28.50;44.10
43009;DHT22;28634;45.454;11.106;2022-09-01T14:38:13;28.50;45.70
43009;DHT22;28634;45.454;11.106;2022-09-01T14:40:42;28.50;45.50
43009;DHT22;28634;45.454;11.106;2022-09-01T14:43:10;28.50;43.50
43009;DHT22;28634;45.454;11.106;2022-09-01T14:45:41;28.50;45.10
43009;DHT22;28634;45.454;11.106;2022-09-01T14:48:15;28.50;43.70
43009;DHT22;28634;45.454;11.106;2022-09-01T14:50:46;28.50;43.10
43009;DHT22;28634;45.454;11.106;2022-09-01T14:53:14;28.40;43.60
43009;DHT22;28634;45.454;11.106;2022-09-01T14:55:41;28.30;43.70
43009;DHT22;28634;45.454;11.106;2022-09-01T14:58:10;28.30;44.30
43009;DHT22;28634;45.454;11.106;2022-09-01T15:00:37;28.30;44.80
43009;DHT22;28634;45.454;11.106;2022-09-01T15:03:08;28.30;45.10
43009;DHT22;28634;45.454;11.106;2022-09-01T15:05:36;28.30;44.90
43009;DHT22;28634;45.454;11.106;2022-09-01T15:08:07;28.20;45.40
43009;DHT22;28634;45.454;11.106;2022-09-01T15:10:34;28.20;45.50
43009;DHT22;28634;45.454;11.106;2022-09-01T15:13:03;28.20;45.00
43009;DHT22;28634;45.454;11.106;2022-09-01T15:15:31;28.20;44.80
43009;DHT22;28634;45.454;11.106;2022-09-01T15:17:59;28.20;47.20
43009;DHT22;28634;45.454;11.106;2022-09-01T15:20:27;28.20;45.90
43009;DHT22;28634;45.454;11.106;2022-09-01T15:23:20;28.20;45.40
43009;DHT22;28634;45.454;11.106;2022-09-01T15:25:51;28.10;46.20
43009;DHT22;28634;45.454;11.106;2022-09-01T15:28:19;28.20;46.60
43009;DHT22;28634;45.454;11.106;2022-09-01T15:30:46;28.20;45.30
43009;DHT22;28634;45.454;11.106;2022-09-01T15:33:17;28.20;45.50
43009;DHT22;28634;45.454;11.106;2022-09-01T15:35:52;28.20;44.60
43009;DHT22;28634;45.454;11.106;2022-09-01T15:38:28;28.30;45.40
43009;DHT22;28634;45.454;11.106;2022-09-01T15:41:42;28.30;47.40
43009;DHT22;28634;45.454;11.106;2022-09-01T15:44:09;28.30;47.80
43009;DHT22;28634;45.454;11.106;2022-09-01T15:46:37;28.30;47.70
43009;DHT22;28634;45.454;11.106;2022-09-01T15:49:07;28.30;48.10
43009;DHT22;28634;45.454;11.106;2022-09-01T15:51:38;28.20;46.80
43009;DHT22;28634;45.454;11.106;2022-09-01T15:54:11;28.10;45.50
43009;DHT22;28634;45.454;11.106;2022-09-01T15:56:39;28.20;46.30
43009;DHT22;28634;45.454;11.106;2022-09-01T15:59:07;28.20;46.80
43009;DHT22;28634;45.454;11.106;2022-09-01T16:01:38;28.20;45.70
43009;DHT22;28634;45.454;11.106;2022-09-01T16:04:07;28.30;46.00
43009;DHT22;28634;45.454;11.106;2022-09-01T16:06:34;28.30;45.90
43009;DHT22;28634;45.454;11.106;2022-09-01T16:09:02;28.40;44.90
43009;DHT22;28634;45.454;11.106;2022-09-01T16:11:29;28.30;45.30
43009;DHT22;28634;45.454;11.106;2022-09-01T16:13:58;28.30;45.90
43009;DHT22;28634;45.454;11.106;2022-09-01T16:21:59;28.30;45.60
43009;DHT22;28634;45.454;11.106;2022-09-01T16:24:27;28.30;45.30
43009;DHT22;28634;45.454;11.106;2022-09-01T16:26:58;28.20;45.10
43009;DHT22;28634;45.454;11.106;2022-09-01T16:32:11;28.20;46.00
43009;DHT22;28634;45.454;11.106;2022-09-01T16:34:43;28.20;46.00
43009;DHT22;28634;45.454;11.106;2022-09-01T16:45:58;28.10;45.70
43009;DHT22;28634;45.454;11.106;2022-09-01T16:48:39;28.10;45.20
43009;DHT22;28634;45.454;11.106;2022-09-01T16:56:31;28.20;44.10
43009;DHT22;28634;45.454;11.106;2022-09-01T16:59:35;28.20;44.60
43009;DHT22;28634;45.454;11.106;2022-09-01T17:02:33;28.10;43.60
43009;DHT22;28634;45.454;11.106;2022-09-01T17:05:25;28.10;44.20
43009;DHT22;28634;45.454;11.106;2022-09-01T17:08:22;28.10;44.50
43009;DHT22;28634;45.454;11.106;2022-09-01T17:13:42;28.10;44.60
43009;DHT22;28634;45.454;11.106;2022-09-01T17:16:36;28.10;44.40
43009;DHT22;28634;45.454;11.106;2022-09-01T17:19:08;28.10;43.40
43009;DHT22;28634;45.454;11.106;2022-09-01T17:21:44;28.00;44.30
43009;DHT22;28634;45.454;11.106;2022-09-01T17:26:50;28.20;43.60
43009;DHT22;28634;45.454;11.106;2022-09-01T17:29:39;28.10;43.00
43009;DHT22;28634;45.454;11.106;2022-09-01T17:32:47;28.10;42.40
43009;DHT22;28634;45.454;11.106;2022-09-01T17:35:41;28.00;41.70
43009;DHT22;28634;45.454;11.106;2022-09-01T17:46:50;28.00;44.10
43009;DHT22;28634;45.454;11.106;2022-09-01T17:57:49;27.90;44.10
43009;DHT22;28634;45.454;11.106;2022-09-01T18:00:24;27.80;44.50
43009;DHT22;28634;45.454;11.106;2022-09-01T18:05:53;27.70;44.50
43009;DHT22;28634;45.454;11.106;2022-09-01T18:08:24;27.70;44.80
43009;DHT22;28634;45.454;11.106;2022-09-01T18:11:00;27.70;45.40
43009;DHT22;28634;45.454;11.106;2022-09-01T18:16:29;27.60;44.80
43009;DHT22;28634;45.454;11.106;2022-09-01T18:19:06;27.70;43.80
43009;DHT22;28634;45.454;11.106;2022-09-01T18:21:43;27.70;45.70
43009;DHT22;28634;45.454;11.106;2022-09-01T18:24:19;27.80;44.40
43009;DHT22;28634;45.454;11.106;2022-09-01T18:26:49;27.90;42.40
43009;DHT22;28634;45.454;11.106;2022-09-01T18:29:20;27.90;45.00
43009;DHT22;28634;45.454;11.106;2022-09-01T18:32:06;27.90;43.90
43009;DHT22;28634;45.454;11.106;2022-09-01T18:37:54;27.80;42.80
43009;DHT22;28634;45.454;11.106;2022-09-01T18:41:00;27.70;41.60
43009;DHT22;28634;45.454;11.106;2022-09-01T18:43:41;27.70;41.60
43009;DHT22;28634;45.454;11.106;2022-09-01T18:49:09;27.70;42.30
43009;DHT22;28634;45.454;11.106;2022-09-01T18:54:54;27.60;41.60
43009;DHT22;28634;45.454;11.106;2022-09-01T18:57:35;27.60;41.90
43009;DHT22;28634;45.454;11.106;2022-09-01T19:00:15;27.60;42.30